Boulder, WY (82923)

1:40 PM MDT on August 29, 2015 (GMT -0600)
Wenz | | Change Station
CLOSE
Current Station
Airport
Location: Pinedale,
Elevation: 7087 ft
Nearby Weather Stations
Active Advisory: Fire Weather Warning

Elev 7087 ft 42.80 °N, 109.81 °W | Updated 25 minutes ago

Clear
Clear
79 °F
Feels Like 79 °F
N
9
Wind Variable Wind from South
Gusts 17 mph

Today
High -- | Low -- °F
--% Chance of Precip.
Yesterday
High -- | Low -- °F
Precip. -- in
6:40 AM 7:58 PM
Full, 100% visible
Pressure 30.29 in
Visibility 10.0 miles
Clouds Clear
Dew Point 30 °F
Humidity 17%
Rainfall 0.00 in
Snow Depth Not available.
UV 10 out of 12
Pollen 9.90 out of 12
Air Quality Not available.
Flu Activity Not available.
METAR KPNA 291915Z AUTO 19008G15KT 10SM CLR 26/M01 A3029 RMK AO2
Pressure 30.29 in
Visibility 10.0 miles
Clouds Clear
Dew Point 30 °F
Humidity 17%
Rainfall 0.00 in
Snow Depth Not available.
UV 10 out of 12
Pollen 9.90 out of 12
Air Quality Not available.
Flu Activity Not available.
METAR KPNA 291915Z AUTO 19008G15KT 10SM CLR 26/M01 A3029 RMK AO2

10-Day Weather Forecast

×

Almanac

Astronomy

Aug. 29, 2015 Rise Set
Actual Time
Civil Twilight
Nautical Twilight
Astronomical Twilight
Moon
Length of Visible Light
Length of Day
Tomorrow will be .
, % of the Moon is Illuminated

Today's Extremes

State Highs State Lows

Community

WunderPhotos

Upload Photos

1,850,786 photos uploaded!

WunderBlogs® & News

Nearby

Air Quality

  Air Quality AQ Index Pollutant
Not available.

Snow Depth

Station Depth Elevation

Earthquake Activity

City Distance Mag. Time & Date
Minimum magnitude displayed is 2.5.

Coastal Water Temperatures

Place Temperature

Stations

Nearby Weather Stations

Station Location Temp. Windchill Dew Point Humidity Wind Precip. Elev Updated Type
                   
Fire Weather Warning
Statement as of 1:23 PM MDT on August 29, 2015

... Red flag warning remains in effect until 9 PM MDT this evening
for gusty wind... low humidity... warm temperatures... high Haines
index... and dry thunderstorms...

* wind... southwest 15 to 25 mph with gusts to around 35 mph.
Gusts to around 40 mph possible late this afternoon.

* Maximum temperatures... 80 to 85.

* Humidity... dropping to 15 to 19 percent.

* Thunderstorms... isolated to widely scattered dry
thunderstorms.

* Haines index... 6.

* Impacts... any fires that develop will likely spread rapidly.
Outdoor burning is not recommended and campfires need to be
out cold.

Precautionary/preparedness actions...

A red flag warning means that critical fire weather conditions
are either occurring now... or will shortly. A combination of
strong winds... low relative humidity... and warm temperatures will
create extreme fire behavior.